sensor_id;sensor_type;location;lat;lon;timestamp;P1;durP1;ratioP1;P2;durP2;ratioP2
62929;SDS011;49036;42.782;23.108;2023-03-31T00:01:10;14.95;;;3.58;;
62929;SDS011;49036;42.782;23.108;2023-03-31T00:03:36;13.65;;;3.45;;
62929;SDS011;49036;42.782;23.108;2023-03-31T00:06:08;9.60;;;3.78;;
62929;SDS011;49036;42.782;23.108;2023-03-31T00:08:36;9.13;;;2.72;;
62929;SDS011;49036;42.782;23.108;2023-03-31T00:11:04;8.50;;;2.85;;
62929;SDS011;49036;42.782;23.108;2023-03-31T00:13:34;8.90;;;3.10;;
62929;SDS011;49036;42.782;23.108;2023-03-31T00:16:04;10.05;;;3.45;;
62929;SDS011;49036;42.782;23.108;2023-03-31T00:18:32;14.15;;;3.97;;
62929;SDS011;49036;42.782;23.108;2023-03-31T00:21:08;9.85;;;3.50;;
62929;SDS011;49036;42.782;23.108;2023-03-31T00:23:38;12.18;;;3.50;;
62929;SDS011;49036;42.782;23.108;2023-03-31T00:26:05;21.38;;;4.13;;
62929;SDS011;49036;42.782;23.108;2023-03-31T00:28:30;9.30;;;3.30;;
62929;SDS011;49036;42.782;23.108;2023-03-31T00:33:26;14.63;;;3.10;;
62929;SDS011;49036;42.782;23.108;2023-03-31T00:35:52;13.88;;;4.97;;
62929;SDS011;49036;42.782;23.108;2023-03-31T00:38:19;9.10;;;3.17;;
62929;SDS011;49036;42.782;23.108;2023-03-31T00:40:46;11.00;;;3.47;;
62929;SDS011;49036;42.782;23.108;2023-03-31T00:48:27;9.73;;;3.50;;
62929;SDS011;49036;42.782;23.108;2023-03-31T00:50:54;15.13;;;4.28;;
62929;SDS011;49036;42.782;23.108;2023-03-31T00:53:23;12.23;;;4.07;;
62929;SDS011;49036;42.782;23.108;2023-03-31T00:55:53;14.07;;;3.83;;
62929;SDS011;49036;42.782;23.108;2023-03-31T00:58:21;8.68;;;3.45;;
62929;SDS011;49036;42.782;23.108;2023-03-31T01:00:52;14.57;;;3.70;;
62929;SDS011;49036;42.782;23.108;2023-03-31T01:03:21;13.07;;;3.47;;
62929;SDS011;49036;42.782;23.108;2023-03-31T01:08:15;11.80;;;3.67;;
62929;SDS011;49036;42.782;23.108;2023-03-31T01:10:44;12.52;;;3.90;;
62929;SDS011;49036;42.782;23.108;2023-03-31T01:13:13;10.73;;;3.05;;
62929;SDS011;49036;42.782;23.108;2023-03-31T01:15:41;8.55;;;3.00;;
62929;SDS011;49036;42.782;23.108;2023-03-31T01:18:07;13.18;;;3.75;;
62929;SDS011;49036;42.782;23.108;2023-03-31T01:42:36;10.57;;;2.90;;
62929;SDS011;49036;42.782;23.108;2023-03-31T01:53:11;6.50;;;2.58;;
62929;SDS011;49036;42.782;23.108;2023-03-31T01:55:44;4.50;;;2.72;;
62929;SDS011;49036;42.782;23.108;2023-03-31T01:58:20;4.03;;;2.10;;
62929;SDS011;49036;42.782;23.108;2023-03-31T02:00:53;9.25;;;2.58;;
62929;SDS011;49036;42.782;23.108;2023-03-31T02:03:42;3.90;;;2.13;;
62929;SDS011;49036;42.782;23.108;2023-03-31T02:06:13;10.48;;;2.33;;
62929;SDS011;49036;42.782;23.108;2023-03-31T02:08:45;6.07;;;2.28;;
62929;SDS011;49036;42.782;23.108;2023-03-31T02:11:15;3.28;;;2.10;;
62929;SDS011;49036;42.782;23.108;2023-03-31T02:13:41;6.07;;;2.78;;
62929;SDS011;49036;42.782;23.108;2023-03-31T02:16:11;7.93;;;2.45;;
62929;SDS011;49036;42.782;23.108;2023-03-31T02:18:43;3.72;;;1.75;;
62929;SDS011;49036;42.782;23.108;2023-03-31T02:21:12;5.38;;;2.58;;
62929;SDS011;49036;42.782;23.108;2023-03-31T02:23:40;3.92;;;2.13;;
62929;SDS011;49036;42.782;23.108;2023-03-31T02:28:36;5.20;;;1.92;;
62929;SDS011;49036;42.782;23.108;2023-03-31T02:33:28;5.78;;;2.42;;
62929;SDS011;49036;42.782;23.108;2023-03-31T02:35:53;10.38;;;2.38;;
62929;SDS011;49036;42.782;23.108;2023-03-31T02:38:19;4.78;;;2.28;;
62929;SDS011;49036;42.782;23.108;2023-03-31T02:40:44;8.50;;;3.22;;
62929;SDS011;49036;42.782;23.108;2023-03-31T02:43:10;3.90;;;2.22;;
62929;SDS011;49036;42.782;23.108;2023-03-31T02:48:08;3.05;;;1.92;;
62929;SDS011;49036;42.782;23.108;2023-03-31T02:51:23;2.88;;;1.88;;
62929;SDS011;49036;42.782;23.108;2023-03-31T03:01:42;2.85;;;1.70;;
62929;SDS011;49036;42.782;23.108;2023-03-31T03:12:45;3.47;;;2.10;;
62929;SDS011;49036;42.782;23.108;2023-03-31T03:15:29;3.22;;;1.90;;
62929;SDS011;49036;42.782;23.108;2023-03-31T03:18:03;3.55;;;2.20;;
62929;SDS011;49036;42.782;23.108;2023-03-31T03:20:30;2.97;;;1.95;;
62929;SDS011;49036;42.782;23.108;2023-03-31T03:22:58;2.40;;;2.17;;
62929;SDS011;49036;42.782;23.108;2023-03-31T03:25:24;3.88;;;2.47;;
62929;SDS011;49036;42.782;23.108;2023-03-31T03:27:50;4.15;;;2.13;;
62929;SDS011;49036;42.782;23.108;2023-03-31T03:30:17;5.55;;;2.05;;
62929;SDS011;49036;42.782;23.108;2023-03-31T03:32:43;8.18;;;3.25;;
62929;SDS011;49036;42.782;23.108;2023-03-31T03:35:09;6.93;;;2.65;;
62929;SDS011;49036;42.782;23.108;2023-03-31T03:37:35;8.45;;;2.22;;
62929;SDS011;49036;42.782;23.108;2023-03-31T03:40:01;3.58;;;2.45;;
62929;SDS011;49036;42.782;23.108;2023-03-31T03:42:27;8.00;;;2.67;;
62929;SDS011;49036;42.782;23.108;2023-03-31T03:44:53;6.75;;;2.45;;
62929;SDS011;49036;42.782;23.108;2023-03-31T03:47:18;3.85;;;2.03;;
62929;SDS011;49036;42.782;23.108;2023-03-31T03:49:44;5.97;;;2.33;;
62929;SDS011;49036;42.782;23.108;2023-03-31T03:52:09;7.32;;;3.67;;
62929;SDS011;49036;42.782;23.108;2023-03-31T03:54:35;4.57;;;2.45;;
62929;SDS011;49036;42.782;23.108;2023-03-31T03:57:00;5.82;;;2.65;;
62929;SDS011;49036;42.782;23.108;2023-03-31T03:59:26;4.78;;;2.33;;
62929;SDS011;49036;42.782;23.108;2023-03-31T04:01:51;3.33;;;2.13;;
62929;SDS011;49036;42.782;23.108;2023-03-31T04:04:17;5.63;;;2.53;;
62929;SDS011;49036;42.782;23.108;2023-03-31T04:06:43;1.95;;;1.60;;
62929;SDS011;49036;42.782;23.108;2023-03-31T04:09:08;6.10;;;2.28;;
62929;SDS011;49036;42.782;23.108;2023-03-31T04:11:34;2.75;;;1.70;;
62929;SDS011;49036;42.782;23.108;2023-03-31T04:14:00;3.05;;;1.90;;
62929;SDS011;49036;42.782;23.108;2023-03-31T04:16:25;2.88;;;2.10;;
62929;SDS011;49036;42.782;23.108;2023-03-31T04:18:53;3.67;;;1.83;;
62929;SDS011;49036;42.782;23.108;2023-03-31T04:21:21;6.10;;;2.03;;
62929;SDS011;49036;42.782;23.108;2023-03-31T04:23:51;4.00;;;2.72;;
62929;SDS011;49036;42.782;23.108;2023-03-31T04:26:26;8.05;;;2.55;;
62929;SDS011;49036;42.782;23.108;2023-03-31T04:29:06;4.63;;;2.38;;
62929;SDS011;49036;42.782;23.108;2023-03-31T04:31:33;7.43;;;2.80;;
62929;SDS011;49036;42.782;23.108;2023-03-31T04:34:03;6.00;;;2.70;;
62929;SDS011;49036;42.782;23.108;2023-03-31T04:36:31;6.13;;;2.83;;
62929;SDS011;49036;42.782;23.108;2023-03-31T04:38:59;9.18;;;3.30;;
62929;SDS011;49036;42.782;23.108;2023-03-31T04:41:25;10.05;;;2.70;;
62929;SDS011;49036;42.782;23.108;2023-03-31T04:43:54;7.03;;;2.92;;
62929;SDS011;49036;42.782;23.108;2023-03-31T04:46:19;6.57;;;3.50;;
62929;SDS011;49036;42.782;23.108;2023-03-31T04:48:46;8.70;;;2.72;;
62929;SDS011;49036;42.782;23.108;2023-03-31T04:51:11;9.85;;;3.20;;
62929;SDS011;49036;42.782;23.108;2023-03-31T04:53:39;13.27;;;3.63;;
62929;SDS011;49036;42.782;23.108;2023-03-31T04:56:05;5.38;;;2.38;;
62929;SDS011;49036;42.782;23.108;2023-03-31T04:58:31;14.57;;;3.38;;
62929;SDS011;49036;42.782;23.108;2023-03-31T05:00:57;9.77;;;3.22;;
62929;SDS011;49036;42.782;23.108;2023-03-31T05:03:22;9.45;;;3.13;;
62929;SDS011;49036;42.782;23.108;2023-03-31T05:05:48;12.23;;;2.88;;
62929;SDS011;49036;42.782;23.108;2023-03-31T05:08:13;8.85;;;3.47;;
62929;SDS011;49036;42.782;23.108;2023-03-31T05:10:39;9.88;;;3.20;;
62929;SDS011;49036;42.782;23.108;2023-03-31T05:13:04;14.40;;;3.70;;
62929;SDS011;49036;42.782;23.108;2023-03-31T05:15:30;5.72;;;2.88;;
62929;SDS011;49036;42.782;23.108;2023-03-31T05:17:56;10.20;;;3.00;;
62929;SDS011;49036;42.782;23.108;2023-03-31T05:20:22;12.00;;;2.85;;
62929;SDS011;49036;42.782;23.108;2023-03-31T05:22:48;8.70;;;2.75;;
62929;SDS011;49036;42.782;23.108;2023-03-31T05:25:14;6.60;;;3.25;;
62929;SDS011;49036;42.782;23.108;2023-03-31T05:27:43;4.15;;;2.40;;
62929;SDS011;49036;42.782;23.108;2023-03-31T05:30:11;9.80;;;2.70;;
62929;SDS011;49036;42.782;23.108;2023-03-31T05:32:37;9.00;;;2.78;;
62929;SDS011;49036;42.782;23.108;2023-03-31T05:35:03;5.63;;;2.55;;
62929;SDS011;49036;42.782;23.108;2023-03-31T05:37:28;10.52;;;2.78;;
62929;SDS011;49036;42.782;23.108;2023-03-31T05:39:54;8.48;;;3.33;;
62929;SDS011;49036;42.782;23.108;2023-03-31T05:42:20;7.20;;;2.63;;
62929;SDS011;49036;42.782;23.108;2023-03-31T05:44:45;10.70;;;2.50;;
62929;SDS011;49036;42.782;23.108;2023-03-31T05:47:11;15.93;;;4.47;;
62929;SDS011;49036;42.782;23.108;2023-03-31T05:49:37;10.13;;;3.03;;
62929;SDS011;49036;42.782;23.108;2023-03-31T05:52:03;9.23;;;2.85;;
62929;SDS011;49036;42.782;23.108;2023-03-31T05:54:30;11.95;;;3.63;;
62929;SDS011;49036;42.782;23.108;2023-03-31T05:56:56;9.10;;;3.30;;
62929;SDS011;49036;42.782;23.108;2023-03-31T05:59:21;9.10;;;2.75;;
62929;SDS011;49036;42.782;23.108;2023-03-31T06:01:47;3.78;;;2.53;;
62929;SDS011;49036;42.782;23.108;2023-03-31T06:04:12;8.20;;;3.08;;
62929;SDS011;49036;42.782;23.108;2023-03-31T06:06:38;10.90;;;4.40;;
62929;SDS011;49036;42.782;23.108;2023-03-31T06:09:04;5.88;;;3.20;;
62929;SDS011;49036;42.782;23.108;2023-03-31T06:11:30;11.80;;;2.83;;
62929;SDS011;49036;42.782;23.108;2023-03-31T06:16:21;11.02;;;2.63;;
62929;SDS011;49036;42.782;23.108;2023-03-31T06:18:47;7.60;;;2.50;;
62929;SDS011;49036;42.782;23.108;2023-03-31T06:21:15;6.32;;;2.67;;
62929;SDS011;49036;42.782;23.108;2023-03-31T06:23:42;9.18;;;3.30;;
62929;SDS011;49036;42.782;23.108;2023-03-31T06:26:14;12.43;;;2.88;;
62929;SDS011;49036;42.782;23.108;2023-03-31T06:28:42;5.80;;;2.50;;
62929;SDS011;49036;42.782;23.108;2023-03-31T06:31:09;9.05;;;2.88;;
62929;SDS011;49036;42.782;23.108;2023-03-31T06:33:37;6.90;;;3.17;;
62929;SDS011;49036;42.782;23.108;2023-03-31T06:36:04;3.92;;;2.55;;
62929;SDS011;49036;42.782;23.108;2023-03-31T06:38:31;8.98;;;2.75;;
62929;SDS011;49036;42.782;23.108;2023-03-31T06:40:59;4.40;;;2.67;;
62929;SDS011;49036;42.782;23.108;2023-03-31T06:45:54;7.43;;;2.45;;
62929;SDS011;49036;42.782;23.108;2023-03-31T06:48:20;3.90;;;2.97;;
62929;SDS011;49036;42.782;23.108;2023-03-31T06:50:47;7.47;;;2.63;;
62929;SDS011;49036;42.782;23.108;2023-03-31T06:55:38;6.38;;;1.88;;
62929;SDS011;49036;42.782;23.108;2023-03-31T06:58:04;6.60;;;2.97;;
62929;SDS011;49036;42.782;23.108;2023-03-31T07:00:30;4.50;;;2.72;;
62929;SDS011;49036;42.782;23.108;2023-03-31T07:02:56;7.15;;;2.03;;
62929;SDS011;49036;42.782;23.108;2023-03-31T07:07:54;10.85;;;2.42;;
62929;SDS011;49036;42.782;23.108;2023-03-31T07:10:21;10.95;;;1.85;;
62929;SDS011;49036;42.782;23.108;2023-03-31T07:12:47;9.43;;;2.35;;
62929;SDS011;49036;42.782;23.108;2023-03-31T07:15:13;2.47;;;1.60;;
62929;SDS011;49036;42.782;23.108;2023-03-31T07:17:38;4.35;;;2.38;;
62929;SDS011;49036;42.782;23.108;2023-03-31T07:20:16;7.85;;;3.20;;
62929;SDS011;49036;42.782;23.108;2023-03-31T07:22:43;4.28;;;2.00;;
62929;SDS011;49036;42.782;23.108;2023-03-31T07:25:10;7.00;;;1.80;;
62929;SDS011;49036;42.782;23.108;2023-03-31T07:27:37;6.43;;;2.35;;
62929;SDS011;49036;42.782;23.108;2023-03-31T07:30:03;7.10;;;2.95;;
62929;SDS011;49036;42.782;23.108;2023-03-31T07:32:30;8.23;;;2.08;;
62929;SDS011;49036;42.782;23.108;2023-03-31T07:34:57;4.95;;;2.25;;
62929;SDS011;49036;42.782;23.108;2023-03-31T07:37:23;5.68;;;1.95;;
62929;SDS011;49036;42.782;23.108;2023-03-31T07:39:48;6.38;;;3.25;;
62929;SDS011;49036;42.782;23.108;2023-03-31T07:42:14;5.32;;;2.05;;
62929;SDS011;49036;42.782;23.108;2023-03-31T07:44:39;3.63;;;1.88;;
62929;SDS011;49036;42.782;23.108;2023-03-31T07:49:31;2.78;;;1.58;;
62929;SDS011;49036;42.782;23.108;2023-03-31T07:51:58;4.63;;;1.83;;
62929;SDS011;49036;42.782;23.108;2023-03-31T07:54:24;4.55;;;2.20;;
62929;SDS011;49036;42.782;23.108;2023-03-31T07:56:50;9.57;;;2.40;;
62929;SDS011;49036;42.782;23.108;2023-03-31T07:59:16;5.97;;;2.40;;
62929;SDS011;49036;42.782;23.108;2023-03-31T08:01:41;9.07;;;2.85;;
62929;SDS011;49036;42.782;23.108;2023-03-31T08:04:07;8.02;;;2.13;;
62929;SDS011;49036;42.782;23.108;2023-03-31T08:06:34;8.05;;;2.25;;
62929;SDS011;49036;42.782;23.108;2023-03-31T08:09:00;3.55;;;1.50;;
62929;SDS011;49036;42.782;23.108;2023-03-31T08:11:25;3.70;;;1.30;;
62929;SDS011;49036;42.782;23.108;2023-03-31T08:13:51;3.45;;;2.35;;
62929;SDS011;49036;42.782;23.108;2023-03-31T08:16:17;2.60;;;1.60;;
62929;SDS011;49036;42.782;23.108;2023-03-31T08:18:43;4.90;;;1.70;;
62929;SDS011;49036;42.782;23.108;2023-03-31T08:21:08;3.47;;;1.60;;
62929;SDS011;49036;42.782;23.108;2023-03-31T08:23:34;3.33;;;1.65;;
62929;SDS011;49036;42.782;23.108;2023-03-31T08:26:07;6.47;;;1.80;;
62929;SDS011;49036;42.782;23.108;2023-03-31T08:28:38;6.30;;;1.73;;
62929;SDS011;49036;42.782;23.108;2023-03-31T08:31:06;6.18;;;2.03;;
62929;SDS011;49036;42.782;23.108;2023-03-31T08:33:34;4.07;;;2.00;;
62929;SDS011;49036;42.782;23.108;2023-03-31T08:36:33;3.83;;;1.95;;
62929;SDS011;49036;42.782;23.108;2023-03-31T08:38:58;3.58;;;1.48;;
62929;SDS011;49036;42.782;23.108;2023-03-31T08:43:15;5.72;;;1.83;;
62929;SDS011;49036;42.782;23.108;2023-03-31T08:45:46;5.75;;;1.67;;
62929;SDS011;49036;42.782;23.108;2023-03-31T08:48:33;2.58;;;1.55;;
62929;SDS011;49036;42.782;23.108;2023-03-31T08:51:22;2.80;;;1.40;;
62929;SDS011;49036;42.782;23.108;2023-03-31T08:54:04;5.03;;;1.58;;
62929;SDS011;49036;42.782;23.108;2023-03-31T08:56:35;10.65;;;1.58;;
62929;SDS011;49036;42.782;23.108;2023-03-31T08:59:04;4.18;;;2.38;;
62929;SDS011;49036;42.782;23.108;2023-03-31T09:12:25;2.88;;;1.55;;
62929;SDS011;49036;42.782;23.108;2023-03-31T09:15:07;3.70;;;1.42;;
62929;SDS011;49036;42.782;23.108;2023-03-31T09:17:40;6.57;;;1.80;;
62929;SDS011;49036;42.782;23.108;2023-03-31T09:20:18;3.08;;;1.20;;
62929;SDS011;49036;42.782;23.108;2023-03-31T09:22:49;8.38;;;2.05;;
62929;SDS011;49036;42.782;23.108;2023-03-31T09:25:30;6.18;;;1.55;;
62929;SDS011;49036;42.782;23.108;2023-03-31T09:28:01;2.05;;;1.38;;
62929;SDS011;49036;42.782;23.108;2023-03-31T09:30:30;5.25;;;1.35;;
62929;SDS011;49036;42.782;23.108;2023-03-31T09:33:11;3.92;;;1.55;;
62929;SDS011;49036;42.782;23.108;2023-03-31T09:35:41;5.00;;;1.70;;
62929;SDS011;49036;42.782;23.108;2023-03-31T09:38:08;3.00;;;1.58;;
62929;SDS011;49036;42.782;23.108;2023-03-31T09:40:36;5.43;;;1.85;;
62929;SDS011;49036;42.782;23.108;2023-03-31T09:43:03;3.65;;;1.27;;
62929;SDS011;49036;42.782;23.108;2023-03-31T09:45:49;6.50;;;1.65;;
62929;SDS011;49036;42.782;23.108;2023-03-31T09:48:19;4.85;;;1.90;;
62929;SDS011;49036;42.782;23.108;2023-03-31T09:50:58;4.72;;;1.90;;
62929;SDS011;49036;42.782;23.108;2023-03-31T09:53:49;3.15;;;1.35;;
62929;SDS011;49036;42.782;23.108;2023-03-31T09:59:11;5.60;;;1.40;;
62929;SDS011;49036;42.782;23.108;2023-03-31T10:01:43;1.60;;;1.08;;
62929;SDS011;49036;42.782;23.108;2023-03-31T10:04:16;5.03;;;1.55;;
62929;SDS011;49036;42.782;23.108;2023-03-31T10:06:45;8.48;;;1.63;;
62929;SDS011;49036;42.782;23.108;2023-03-31T10:11:09;3.92;;;1.55;;
62929;SDS011;49036;42.782;23.108;2023-03-31T10:13:46;3.03;;;1.27;;
62929;SDS011;49036;42.782;23.108;2023-03-31T10:19:18;2.70;;;1.55;;
62929;SDS011;49036;42.782;23.108;2023-03-31T10:22:44;2.65;;;1.42;;
62929;SDS011;49036;42.782;23.108;2023-03-31T10:27:04;4.93;;;2.00;;
62929;SDS011;49036;42.782;23.108;2023-03-31T10:30:32;6.10;;;1.60;;
62929;SDS011;49036;42.782;23.108;2023-03-31T10:33:12;4.20;;;1.50;;
62929;SDS011;49036;42.782;23.108;2023-03-31T10:35:41;3.17;;;1.70;;
62929;SDS011;49036;42.782;23.108;2023-03-31T10:38:12;4.30;;;1.95;;
62929;SDS011;49036;42.782;23.108;2023-03-31T10:40:49;5.18;;;1.55;;
62929;SDS011;49036;42.782;23.108;2023-03-31T10:43:17;7.43;;;1.58;;
62929;SDS011;49036;42.782;23.108;2023-03-31T10:45:49;4.22;;;1.35;;
62929;SDS011;49036;42.782;23.108;2023-03-31T10:49:33;5.13;;;1.95;;
62929;SDS011;49036;42.782;23.108;2023-03-31T10:52:02;4.82;;;1.60;;
62929;SDS011;49036;42.782;23.108;2023-03-31T10:54:28;5.55;;;1.75;;
62929;SDS011;49036;42.782;23.108;2023-03-31T10:56:54;5.15;;;3.38;;
62929;SDS011;49036;42.782;23.108;2023-03-31T10:59:43;8.55;;;2.20;;
62929;SDS011;49036;42.782;23.108;2023-03-31T11:05:34;4.72;;;1.50;;
62929;SDS011;49036;42.782;23.108;2023-03-31T11:11:08;1.60;;;1.40;;
62929;SDS011;49036;42.782;23.108;2023-03-31T11:35:34;6.10;;;1.52;;
62929;SDS011;49036;42.782;23.108;2023-03-31T11:41:03;5.60;;;1.70;;
62929;SDS011;49036;42.782;23.108;2023-03-31T11:43:34;2.83;;;1.98;;
62929;SDS011;49036;42.782;23.108;2023-03-31T11:46:14;3.60;;;2.03;;
62929;SDS011;49036;42.782;23.108;2023-03-31T11:48:51;6.82;;;1.85;;
62929;SDS011;49036;42.782;23.108;2023-03-31T11:54:02;7.45;;;1.77;;
62929;SDS011;49036;42.782;23.108;2023-03-31T11:56:36;5.40;;;1.08;;
62929;SDS011;49036;42.782;23.108;2023-03-31T11:59:04;3.90;;;1.55;;
62929;SDS011;49036;42.782;23.108;2023-03-31T12:04:31;1.80;;;1.33;;
62929;SDS011;49036;42.782;23.108;2023-03-31T12:07:23;4.38;;;1.83;;
62929;SDS011;49036;42.782;23.108;2023-03-31T12:10:12;4.55;;;1.45;;
62929;SDS011;49036;42.782;23.108;2023-03-31T12:12:54;8.10;;;1.63;;
62929;SDS011;49036;42.782;23.108;2023-03-31T12:15:29;3.08;;;1.60;;
62929;SDS011;49036;42.782;23.108;2023-03-31T12:18:00;3.20;;;1.27;;
62929;SDS011;49036;42.782;23.108;2023-03-31T12:20:36;4.75;;;1.23;;
62929;SDS011;49036;42.782;23.108;2023-03-31T12:24:58;7.90;;;1.73;;
62929;SDS011;49036;42.782;23.108;2023-03-31T12:27:36;6.25;;;1.67;;
62929;SDS011;49036;42.782;23.108;2023-03-31T12:32:46;5.68;;;1.60;;
62929;SDS011;49036;42.782;23.108;2023-03-31T12:35:19;5.68;;;1.67;;
62929;SDS011;49036;42.782;23.108;2023-03-31T12:40:49;6.13;;;1.58;;
62929;SDS011;49036;42.782;23.108;2023-03-31T12:43:30;8.48;;;2.10;;
62929;SDS011;49036;42.782;23.108;2023-03-31T12:57:22;5.20;;;1.40;;
62929;SDS011;49036;42.782;23.108;2023-03-31T13:00:08;3.97;;;1.65;;
62929;SDS011;49036;42.782;23.108;2023-03-31T13:02:41;5.70;;;1.70;;
62929;SDS011;49036;42.782;23.108;2023-03-31T13:08:08;1.25;;;1.13;;
62929;SDS011;49036;42.782;23.108;2023-03-31T13:13:25;6.63;;;1.50;;
62929;SDS011;49036;42.782;23.108;2023-03-31T13:16:20;3.35;;;1.92;;
62929;SDS011;49036;42.782;23.108;2023-03-31T13:18:49;6.32;;;1.52;;
62929;SDS011;49036;42.782;23.108;2023-03-31T13:21:19;4.78;;;1.88;;
62929;SDS011;49036;42.782;23.108;2023-03-31T13:23:45;9.90;;;2.33;;
62929;SDS011;49036;42.782;23.108;2023-03-31T13:26:34;5.18;;;1.38;;
62929;SDS011;49036;42.782;23.108;2023-03-31T13:34:28;5.20;;;2.22;;
62929;SDS011;49036;42.782;23.108;2023-03-31T13:59:55;6.25;;;1.65;;
62929;SDS011;49036;42.782;23.108;2023-03-31T14:05:29;2.80;;;1.13;;
62929;SDS011;49036;42.782;23.108;2023-03-31T14:08:13;7.65;;;2.50;;
62929;SDS011;49036;42.782;23.108;2023-03-31T14:10:54;5.53;;;1.30;;
62929;SDS011;49036;42.782;23.108;2023-03-31T14:13:42;5.78;;;1.30;;
62929;SDS011;49036;42.782;23.108;2023-03-31T14:16:08;4.13;;;1.38;;
62929;SDS011;49036;42.782;23.108;2023-03-31T14:18:35;10.48;;;2.33;;
62929;SDS011;49036;42.782;23.108;2023-03-31T14:26:31;2.92;;;1.75;;
62929;SDS011;49036;42.782;23.108;2023-03-31T14:37:53;6.22;;;1.50;;
62929;SDS011;49036;42.782;23.108;2023-03-31T14:40:20;4.38;;;1.20;;
62929;SDS011;49036;42.782;23.108;2023-03-31T14:42:46;3.80;;;1.85;;
62929;SDS011;49036;42.782;23.108;2023-03-31T14:45:16;3.67;;;1.60;;
62929;SDS011;49036;42.782;23.108;2023-03-31T14:48:02;4.10;;;1.80;;
62929;SDS011;49036;42.782;23.108;2023-03-31T14:50:35;3.33;;;1.77;;
62929;SDS011;49036;42.782;23.108;2023-03-31T14:53:01;7.10;;;1.67;;
62929;SDS011;49036;42.782;23.108;2023-03-31T14:55:29;4.28;;;1.50;;
62929;SDS011;49036;42.782;23.108;2023-03-31T14:57:57;4.80;;;1.80;;
62929;SDS011;49036;42.782;23.108;2023-03-31T15:00:31;11.98;;;1.92;;
62929;SDS011;49036;42.782;23.108;2023-03-31T15:03:00;2.75;;;1.65;;
62929;SDS011;49036;42.782;23.108;2023-03-31T15:08:05;6.38;;;1.50;;
62929;SDS011;49036;42.782;23.108;2023-03-31T15:10:36;5.00;;;1.52;;
62929;SDS011;49036;42.782;23.108;2023-03-31T15:13:35;8.38;;;1.88;;
62929;SDS011;49036;42.782;23.108;2023-03-31T15:25:12;3.10;;;1.63;;
62929;SDS011;49036;42.782;23.108;2023-03-31T15:28:01;7.90;;;1.80;;
62929;SDS011;49036;42.782;23.108;2023-03-31T15:30:30;5.95;;;1.65;;
62929;SDS011;49036;42.782;23.108;2023-03-31T15:32:56;4.28;;;1.60;;
62929;SDS011;49036;42.782;23.108;2023-03-31T15:35:24;4.40;;;1.30;;
62929;SDS011;49036;42.782;23.108;2023-03-31T15:37:55;2.88;;;1.70;;
62929;SDS011;49036;42.782;23.108;2023-03-31T15:40:26;3.40;;;1.55;;
62929;SDS011;49036;42.782;23.108;2023-03-31T15:42:56;5.07;;;1.23;;
62929;SDS011;49036;42.782;23.108;2023-03-31T15:48:52;5.30;;;1.63;;
62929;SDS011;49036;42.782;23.108;2023-03-31T15:51:23;5.47;;;2.05;;
62929;SDS011;49036;42.782;23.108;2023-03-31T15:54:39;9.03;;;2.43;;
62929;SDS011;49036;42.782;23.108;2023-03-31T15:57:06;19.00;;;2.90;;
62929;SDS011;49036;42.782;23.108;2023-03-31T16:02:38;9.50;;;2.00;;
62929;SDS011;49036;42.782;23.108;2023-03-31T16:05:15;4.45;;;1.55;;
62929;SDS011;49036;42.782;23.108;2023-03-31T16:07:47;8.15;;;1.77;;
62929;SDS011;49036;42.782;23.108;2023-03-31T16:12:54;4.45;;;2.08;;
62929;SDS011;49036;42.782;23.108;2023-03-31T16:15:40;1.75;;;1.45;;
62929;SDS011;49036;42.782;23.108;2023-03-31T16:18:11;6.10;;;2.28;;
62929;SDS011;49036;42.782;23.108;2023-03-31T16:20:43;4.50;;;1.70;;
62929;SDS011;49036;42.782;23.108;2023-03-31T16:23:17;7.13;;;2.00;;
62929;SDS011;49036;42.782;23.108;2023-03-31T16:25:45;3.35;;;1.80;;
62929;SDS011;49036;42.782;23.108;2023-03-31T16:28:18;4.28;;;1.63;;
62929;SDS011;49036;42.782;23.108;2023-03-31T16:30:47;5.47;;;1.67;;
62929;SDS011;49036;42.782;23.108;2023-03-31T16:33:14;7.38;;;2.00;;
62929;SDS011;49036;42.782;23.108;2023-03-31T16:35:42;5.70;;;2.47;;
62929;SDS011;49036;42.782;23.108;2023-03-31T16:38:17;11.98;;;2.70;;
62929;SDS011;49036;42.782;23.108;2023-03-31T16:40:45;3.70;;;1.98;;
62929;SDS011;49036;42.782;23.108;2023-03-31T16:43:20;5.20;;;1.98;;
62929;SDS011;49036;42.782;23.108;2023-03-31T16:45:48;16.95;;;3.55;;
62929;SDS011;49036;42.782;23.108;2023-03-31T16:48:17;6.63;;;3.40;;
62929;SDS011;49036;42.782;23.108;2023-03-31T16:50:44;7.40;;;2.35;;
62929;SDS011;49036;42.782;23.108;2023-03-31T16:53:12;5.28;;;2.38;;
62929;SDS011;49036;42.782;23.108;2023-03-31T16:55:38;7.35;;;1.90;;
62929;SDS011;49036;42.782;23.108;2023-03-31T16:58:04;4.30;;;1.63;;
62929;SDS011;49036;42.782;23.108;2023-03-31T17:00:31;3.05;;;2.00;;
62929;SDS011;49036;42.782;23.108;2023-03-31T17:03:03;5.95;;;1.88;;
62929;SDS011;49036;42.782;23.108;2023-03-31T17:05:30;7.78;;;2.50;;
62929;SDS011;49036;42.782;23.108;2023-03-31T17:07:57;3.78;;;2.00;;
62929;SDS011;49036;42.782;23.108;2023-03-31T17:12:48;9.25;;;1.55;;
62929;SDS011;49036;42.782;23.108;2023-03-31T17:15:14;6.78;;;1.77;;
62929;SDS011;49036;42.782;23.108;2023-03-31T17:20:06;6.43;;;2.53;;
62929;SDS011;49036;42.782;23.108;2023-03-31T17:22:33;2.30;;;1.67;;
62929;SDS011;49036;42.782;23.108;2023-03-31T17:24:59;5.97;;;3.05;;
62929;SDS011;49036;42.782;23.108;2023-03-31T17:29:51;6.90;;;1.95;;
62929;SDS011;49036;42.782;23.108;2023-03-31T17:32:17;2.78;;;1.67;;
62929;SDS011;49036;42.782;23.108;2023-03-31T17:37:08;4.97;;;2.40;;
62929;SDS011;49036;42.782;23.108;2023-03-31T17:39:34;3.80;;;1.88;;
62929;SDS011;49036;42.782;23.108;2023-03-31T17:42:00;4.95;;;2.42;;
62929;SDS011;49036;42.782;23.108;2023-03-31T17:44:26;11.00;;;2.50;;
62929;SDS011;49036;42.782;23.108;2023-03-31T17:49:17;3.65;;;1.83;;
62929;SDS011;49036;42.782;23.108;2023-03-31T17:54:09;4.13;;;2.13;;
62929;SDS011;49036;42.782;23.108;2023-03-31T17:59:00;5.85;;;2.13;;
62929;SDS011;49036;42.782;23.108;2023-03-31T18:01:27;5.07;;;1.92;;
62929;SDS011;49036;42.782;23.108;2023-03-31T18:06:21;5.22;;;2.05;;
62929;SDS011;49036;42.782;23.108;2023-03-31T18:08:48;6.97;;;1.92;;
62929;SDS011;49036;42.782;23.108;2023-03-31T18:13:40;4.78;;;1.50;;
62929;SDS011;49036;42.782;23.108;2023-03-31T18:18:33;2.70;;;1.88;;
62929;SDS011;49036;42.782;23.108;2023-03-31T18:21:08;3.50;;;1.83;;
62929;SDS011;49036;42.782;23.108;2023-03-31T18:23:35;6.78;;;1.30;;
62929;SDS011;49036;42.782;23.108;2023-03-31T18:26:04;8.95;;;1.52;;
62929;SDS011;49036;42.782;23.108;2023-03-31T18:28:30;7.50;;;2.08;;
62929;SDS011;49036;42.782;23.108;2023-03-31T18:33:22;3.47;;;1.30;;
62929;SDS011;49036;42.782;23.108;2023-03-31T18:38:13;5.22;;;1.73;;
62929;SDS011;49036;42.782;23.108;2023-03-31T18:40:45;4.03;;;1.58;;
62929;SDS011;49036;42.782;23.108;2023-03-31T18:43:12;4.65;;;1.52;;
62929;SDS011;49036;42.782;23.108;2023-03-31T18:48:03;5.63;;;1.40;;
62929;SDS011;49036;42.782;23.108;2023-03-31T18:52:54;4.03;;;1.85;;
62929;SDS011;49036;42.782;23.108;2023-03-31T18:57:46;3.88;;;1.33;;
62929;SDS011;49036;42.782;23.108;2023-03-31T19:00:11;1.42;;;1.27;;
62929;SDS011;49036;42.782;23.108;2023-03-31T19:02:38;5.45;;;1.70;;
62929;SDS011;49036;42.782;23.108;2023-03-31T19:07:29;5.60;;;1.80;;
62929;SDS011;49036;42.782;23.108;2023-03-31T19:09:56;2.97;;;1.67;;
62929;SDS011;49036;42.782;23.108;2023-03-31T19:14:47;2.92;;;1.33;;
62929;SDS011;49036;42.782;23.108;2023-03-31T19:19:38;4.18;;;1.70;;
62929;SDS011;49036;42.782;23.108;2023-03-31T19:22:04;1.58;;;1.17;;